Time;durP1;ratioP1;P1;durP2;ratioP2;P2;SDS_P1;SDS_P2;PMS_P1;PMS_P2;Temp;Humidity;BMP_temperature;BMP_pressure;BME280_temperature;BME280_humidity;BME280_pressure;Samples;Min_cycle;Max_cycle;Signal;HPM_P1;HPM_P2
2023/09/18 00:01:19;;;;;;;25.70;21.00;;;;;;;18.46;100.00;95355.63;5052097;28;20443;-79
2023/09/18 00:03:46;;;;;;;30.57;24.10;;;;;;;18.57;100.00;95360.59;5016770;28;20435;-80
2023/09/18 00:06:13;;;;;;;26.87;21.67;;;;;;;18.57;100.00;95355.28;5052029;28;20445;-79
2023/09/18 00:08:40;;;;;;;26.10;21.57;;;;;;;18.57;100.00;95349.97;5051921;28;20449;-80
2023/09/18 00:11:08;;;;;;;33.80;23.63;;;;;;;18.61;100.00;95353.13;5051869;28;20511;-80
2023/09/18 00:13:34;;;;;;;31.37;24.70;;;;;;;18.52;100.00;95352.31;5051991;28;20562;-80
2023/09/18 00:16:03;;;;;;;26.33;22.40;;;;;;;18.41;100.00;95349.97;5051781;28;20520;-80
2023/09/18 00:18:30;;;;;;;28.73;21.97;;;;;;;18.41;100.00;95349.97;5051742;28;20451;-80
2023/09/18 00:20:57;;;;;;;22.20;19.30;;;;;;;18.55;100.00;95348.47;5052194;28;20451;-80
2023/09/18 00:23:24;;;;;;;22.23;19.77;;;;;;;18.57;100.00;95343.81;5052159;28;20945;-80
2023/09/18 00:25:51;;;;;;;23.10;18.80;;;;;;;18.71;100.00;95355.63;5051781;28;20451;-80
2023/09/18 00:28:17;;;;;;;26.40;18.77;;;;;;;18.81;100.00;95354.47;5051881;28;20778;-80
2023/09/18 00:30:50;;;;;;;27.97;19.63;;;;;;;18.73;100.00;95351.81;5051752;28;20940;-80
2023/09/18 00:33:19;;;;;;;24.60;19.97;;;;;;;18.67;100.00;95346.34;5051784;28;20489;-79
2023/09/18 00:35:49;;;;;;;27.00;20.10;;;;;;;18.65;100.00;95351.00;5051941;28;20452;-80
2023/09/18 00:38:16;;;;;;;29.27;22.57;;;;;;;18.67;100.00;95346.34;5052068;28;20816;-80
2023/09/18 00:40:42;;;;;;;25.83;21.93;;;;;;;18.74;100.00;95361.44;5051932;28;20451;-80
2023/09/18 00:43:10;;;;;;;25.90;22.27;;;;;;;18.85;100.00;95357.63;5051719;28;20444;-79
2023/09/18 00:45:41;;;;;;;28.20;24.97;;;;;;;18.91;100.00;95356.09;5051738;28;20531;-80
2023/09/18 00:48:09;;;;;;;37.20;26.17;;;;;;;18.92;100.00;95355.09;5051551;28;20473;-80
2023/09/18 00:50:38;;;;;;;25.40;22.10;;;;;;;18.75;100.00;95359.59;5051786;28;20530;-79
2023/09/18 00:53:08;;;;;;;31.27;24.70;;;;;;;18.71;100.00;95347.66;5051329;28;20509;-80
2023/09/18 00:55:37;;;;;;;28.20;23.77;;;;;;;18.62;100.00;95359.28;5051727;28;20467;-80
2023/09/18 00:58:05;;;;;;;28.57;25.47;;;;;;;18.54;100.00;95360.94;5051372;28;20573;-80
2023/09/18 01:00:32;;;;;;;31.80;24.77;;;;;;;18.49;100.00;95365.06;5051226;28;20489;-79
2023/09/18 01:02:59;;;;;;;31.67;23.30;;;;;;;18.29;100.00;95361.94;5051629;28;20455;-80
2023/09/18 01:05:26;;;;;;;27.63;24.87;;;;;;;18.31;100.00;95357.28;5051594;28;20446;-80
2023/09/18 01:07:54;;;;;;;30.10;26.90;;;;;;;18.43;100.00;95361.25;5032835;28;20939;-79
2023/09/18 01:10:26;;;;;;;28.57;24.33;;;;;;;18.49;100.00;95363.25;5051323;28;20449;-80
2023/09/18 01:13:01;;;;;;;27.47;23.87;;;;;;;18.56;100.00;95361.59;5050951;28;21001;-79
2023/09/18 01:15:33;;;;;;;26.07;21.70;;;;;;;18.36;100.00;95365.59;5054393;28;20443;-80
2023/09/18 01:18:01;;;;;;;25.50;18.63;;;;;;;18.30;100.00;95368.91;5054872;28;20446;-80
2023/09/18 01:20:30;;;;;;;25.00;21.60;;;;;;;18.24;100.00;95374.91;5054974;28;20440;-80
2023/09/18 01:22:59;;;;;;;21.60;17.77;;;;;;;18.22;100.00;95360.94;5054782;28;20446;-80
2023/09/18 01:25:25;;;;;;;22.33;20.03;;;;;;;18.27;100.00;95366.59;5054776;28;20498;-80
2023/09/18 01:27:52;;;;;;;21.67;18.47;;;;;;;18.29;100.00;95364.59;5054537;28;20798;-79
2023/09/18 01:30:19;;;;;;;22.57;18.10;;;;;;;18.20;100.00;95362.91;5019578;28;20461;-80
2023/09/18 01:32:47;;;;;;;21.47;19.17;;;;;;;18.21;100.00;95364.56;5054719;28;20483;-80
2023/09/18 01:35:16;;;;;;;21.40;19.20;;;;;;;18.23;100.00;95360.78;5054691;28;20450;-79
2023/09/18 01:37:45;;;;;;;28.13;20.90;;;;;;;18.39;100.00;95357.28;5054658;28;20444;-79
2023/09/18 01:40:13;;;;;;;21.60;19.27;;;;;;;18.51;100.00;95371.09;5054320;28;20441;-80
2023/09/18 01:42:41;;;;;;;28.67;18.50;;;;;;;18.40;100.00;95368.75;5052605;28;20425;-79
2023/09/18 01:45:09;;;;;;;23.67;20.13;;;;;;;18.31;100.00;95362.59;5054446;28;20997;-80
2023/09/18 01:47:36;;;;;;;30.17;20.10;;;;;;;18.17;100.00;95358.75;5054359;28;20438;-80
2023/09/18 01:50:06;;;;;;;26.63;21.83;;;;;;;18.26;100.00;95367.59;5019131;28;20505;-79
2023/09/18 01:52:34;;;;;;;29.60;21.20;;;;;;;18.29;100.00;95366.44;5054187;28;20521;-79
2023/09/18 01:55:01;;;;;;;26.03;21.27;;;;;;;18.23;100.00;95370.59;5054166;28;20497;-79
2023/09/18 01:57:29;;;;;;;29.23;21.13;;;;;;;18.17;100.00;95369.38;5035946;28;20524;-79
2023/09/18 01:59:56;;;;;;;24.40;20.13;;;;;;;18.25;100.00;95365.94;5054176;28;20440;-80
2023/09/18 02:02:23;;;;;;;23.93;21.10;;;;;;;18.34;100.00;95374.72;5054217;28;20447;-79
2023/09/18 02:04:50;;;;;;;28.73;21.17;;;;;;;18.28;100.00;95378.88;5053856;28;20448;-80
2023/09/18 02:07:17;;;;;;;21.03;18.60;;;;;;;18.18;100.00;95388.81;5053939;28;20590;-79
2023/09/18 02:09:44;;;;;;;25.57;19.37;;;;;;;18.26;100.00;95380.88;5054237;28;20441;-79
2023/09/18 02:12:16;;;;;;;24.60;21.07;;;;;;;18.26;100.00;95379.06;5053825;28;20479;-80
2023/09/18 02:14:45;;;;;;;25.93;19.50;;;;;;;18.03;100.00;95385.16;5054007;28;20443;-79
2023/09/18 02:17:12;;;;;;;24.37;20.80;;;;;;;18.02;100.00;95386.16;5053901;28;20832;-79
2023/09/18 02:19:38;;;;;;;26.23;20.37;;;;;;;18.08;100.00;95385.50;5053887;28;20464;-80
2023/09/18 02:22:06;;;;;;;22.17;19.07;;;;;;;17.99;100.00;95383.81;5053715;28;20445;-79
2023/09/18 02:24:32;;;;;;;25.67;19.43;;;;;;;18.06;100.00;95385.66;5053788;28;20815;-79
2023/09/18 02:26:59;;;;;;;26.30;19.00;;;;;;;18.14;100.00;95382.19;5052672;28;20460;-79
2023/09/18 02:29:26;;;;;;;25.70;19.70;;;;;;;17.94;100.00;95382.50;5053975;28;20448;-80
2023/09/18 02:31:54;;;;;;;21.73;18.60;;;;;;;18.14;100.00;95382.19;5053514;28;20454;-79
2023/09/18 02:34:21;;;;;;;25.17;18.50;;;;;;;18.07;100.00;95378.50;5053163;28;20489;-80
2023/09/18 02:36:48;;;;;;;19.97;17.40;;;;;;;18.06;100.00;95383.00;5053308;28;20446;-79
2023/09/18 02:39:15;;;;;;;25.80;19.33;;;;;;;18.12;100.00;95381.50;5053542;28;20467;-79
2023/09/18 02:41:41;;;;;;;22.83;18.03;;;;;;;18.09;100.00;95376.53;5053475;28;20448;-79
2023/09/18 02:44:08;;;;;;;23.03;18.13;;;;;;;18.04;100.00;95378.84;5053245;28;20445;-79
2023/09/18 02:46:35;;;;;;;21.50;17.90;;;;;;;17.99;100.00;95381.16;5053755;28;20495;-79
2023/09/18 02:49:03;;;;;;;22.33;18.60;;;;;;;17.89;100.00;95376.81;5052934;28;20444;-79
2023/09/18 02:51:31;;;;;;;22.70;19.17;;;;;;;17.84;100.00;95367.69;5053246;28;20468;-79
2023/09/18 02:53:58;;;;;;;24.83;18.93;;;;;;;17.90;100.00;95380.31;5053183;28;20493;-79
2023/09/18 02:56:25;;;;;;;19.93;17.70;;;;;;;17.86;100.00;95377.16;5053363;28;20437;-79
2023/09/18 02:58:51;;;;;;;22.80;20.03;;;;;;;17.95;100.00;95386.81;5052870;28;20445;-79
2023/09/18 03:01:18;;;;;;;25.43;19.17;;;;;;;18.03;100.00;95387.81;5052898;28;20439;-80
2023/09/18 03:03:45;;;;;;;25.30;19.40;;;;;;;17.94;100.00;95385.16;5052983;28;20452;-79
2023/09/18 03:06:13;;;;;;;26.60;20.60;;;;;;;17.98;100.00;95387.47;5065157;28;20440;-80
2023/09/18 03:08:40;;;;;;;22.23;19.90;;;;;;;17.82;100.00;95381.13;5060423;28;20440;-79
2023/09/18 03:11:12;;;;;;;21.77;19.53;;;;;;;17.81;100.00;95387.44;5034037;28;20477;-79
2023/09/18 03:13:45;;;;;;;23.60;20.40;;;;;;;17.71;100.00;95389.41;5052674;28;20579;-79
2023/09/18 03:16:12;;;;;;;24.83;21.67;;;;;;;17.77;100.00;95383.44;5052619;28;21008;-80
2023/09/18 03:18:39;;;;;;;28.13;21.17;;;;;;;17.89;100.00;95387.44;5052688;28;20530;-79
2023/09/18 03:21:05;;;;;;;24.57;20.73;;;;;;;18.01;100.00;95387.16;5052900;28;20448;-80
2023/09/18 03:23:34;;;;;;;27.00;20.60;;;;;;;18.10;100.00;95380.84;5052427;28;20539;-79
2023/09/18 03:26:00;;;;;;;23.60;21.20;;;;;;;18.19;100.00;95374.53;5052906;28;20878;-79
2023/09/18 03:28:31;;;;;;;29.03;21.60;;;;;;;18.27;100.00;95371.91;5052902;28;20456;-80
2023/09/18 03:30:58;;;;;;;24.27;21.67;;;;;;;18.29;100.00;95367.25;5052473;28;20945;-80
2023/09/18 03:33:25;;;;;;;23.87;21.27;;;;;;;18.31;100.00;95362.59;5017461;28;20515;-79
2023/09/18 03:35:54;;;;;;;28.00;23.30;;;;;;;18.23;100.00;95362.63;5052316;28;20997;-80
2023/09/18 03:38:21;;;;;;;24.03;21.13;;;;;;;18.22;100.00;95356.47;5052140;28;20455;-80
2023/09/18 03:40:49;;;;;;;26.50;21.80;;;;;;;18.23;100.00;95360.78;5052459;28;20475;-79
2023/09/18 03:43:16;;;;;;;27.03;21.13;;;;;;;18.29;100.00;95359.28;5051637;28;20431;-79
2023/09/18 03:45:43;;;;;;;32.10;22.43;;;;;;;18.26;100.00;95362.28;5053229;28;20939;-79
2023/09/18 03:48:10;;;;;;;24.33;20.37;;;;;;;18.16;100.00;95362.41;5052275;28;20454;-79
2023/09/18 03:50:36;;;;;;;27.43;21.00;;;;;;;18.15;100.00;95357.28;5052209;28;20446;-80
2023/09/18 03:53:04;;;;;;;25.23;20.20;;;;;;;17.99;100.00;95362.59;5052099;28;20522;-79
2023/09/18 03:55:30;;;;;;;28.27;22.50;;;;;;;17.84;100.00;95365.84;5052141;28;20874;-79
2023/09/18 03:57:59;;;;;;;24.30;21.67;;;;;;;17.68;100.00;95363.19;5052046;28;20484;-79
2023/09/18 04:00:25;;;;;;;27.77;21.27;;;;;;;17.55;100.00;95368.06;5052163;28;20952;-79
2023/09/18 04:02:52;;;;;;;25.00;20.90;;;;;;;17.36;100.00;95363.03;5051987;28;20445;-79
2023/09/18 04:05:19;;;;;;;23.60;20.10;;;;;;;17.39;100.00;95358.25;5016905;28;20439;-80
2023/09/18 04:07:46;;;;;;;32.23;22.30;;;;;;;17.39;100.00;95366.22;5052117;28;20476;-80
2023/09/18 04:10:19;;;;;;;25.20;21.20;;;;;;;17.33;100.00;95367.66;5051880;28;20532;-80
2023/09/18 04:12:47;;;;;;;31.30;24.30;;;;;;;17.38;100.00;95359.25;5051477;28;20486;-80
2023/09/18 04:15:18;;;;;;;31.67;24.23;;;;;;;17.43;100.00;95358.75;5051925;28;20861;-79
2023/09/18 04:17:45;;;;;;;33.33;23.20;;;;;;;17.48;100.00;95365.25;5033649;28;20452;-79
2023/09/18 04:20:13;;;;;;;28.50;24.13;;;;;;;17.50;100.00;95367.72;5051695;28;20932;-79
2023/09/18 04:22:49;;;;;;;29.50;21.40;;;;;;;17.35;100.00;95359.56;5051954;28;20485;-79
2023/09/18 04:25:16;;;;;;;29.03;21.17;;;;;;;17.40;100.00;95362.56;5050172;28;20954;-79
2023/09/18 04:27:43;;;;;;;29.43;23.60;;;;;;;17.42;100.00;95363.22;5051135;28;20467;-79
2023/09/18 04:30:10;;;;;;;31.63;24.57;;;;;;;17.54;100.00;95366.41;5051802;28;20436;-79
2023/09/18 04:32:39;;;;;;;27.40;22.30;;;;;;;17.48;100.00;95375.03;5051634;28;20854;-79
2023/09/18 04:35:08;;;;;;;27.33;22.10;;;;;;;17.62;100.00;95366.44;5051721;28;20479;-79
2023/09/18 04:37:38;;;;;;;28.60;24.70;;;;;;;17.70;100.00;95366.50;5051776;28;20440;-80
2023/09/18 04:40:09;;;;;;;35.00;22.93;;;;;;;17.78;100.00;95369.16;5051710;28;20452;-79
2023/09/18 04:42:36;;;;;;;27.97;22.37;;;;;;;17.63;100.00;95366.25;5051674;28;20459;-79
2023/09/18 04:45:03;;;;;;;29.17;23.10;;;;;;;17.56;100.00;95375.03;5051525;28;20452;-79
2023/09/18 04:47:30;;;;;;;28.07;21.30;;;;;;;17.55;100.00;95370.72;5051787;28;20478;-79
2023/09/18 04:49:58;;;;;;;28.47;22.13;;;;;;;17.56;100.00;95377.69;5053964;28;20450;-79
2023/09/18 04:52:25;;;;;;;29.10;24.00;;;;;;;17.67;100.00;95366.81;5020506;28;20451;-79
2023/09/18 04:54:52;;;;;;;25.73;21.30;;;;;;;17.81;100.00;95373.31;5055392;28;20493;-80
2023/09/18 04:57:18;;;;;;;27.77;22.80;;;;;;;17.95;100.00;95378.00;5020263;28;20444;-79
2023/09/18 04:59:45;;;;;;;29.07;21.77;;;;;;;18.01;100.00;95371.22;5055468;28;20430;-79
2023/09/18 05:02:12;;;;;;;27.47;22.10;;;;;;;18.13;100.00;95370.72;5055614;28;20804;-80
2023/09/18 05:04:39;;;;;;;32.80;23.67;;;;;;;18.07;100.00;95363.41;5055558;28;20437;-80
2023/09/18 05:07:07;;;;;;;27.60;21.13;;;;;;;18.16;100.00;95358.94;5055326;28;20444;-80
2023/09/18 05:09:34;;;;;;;28.53;22.50;;;;;;;18.24;100.00;95359.78;5055187;28;20448;-80
2023/09/18 05:12:01;;;;;;;26.63;22.60;;;;;;;18.39;100.00;95367.09;5055289;28;20521;-80
2023/09/18 05:14:28;;;;;;;27.00;20.73;;;;;;;18.43;100.00;95360.44;5055056;28;20494;-79
2023/09/18 05:16:54;;;;;;;28.10;22.23;;;;;;;18.65;100.00;95372.25;5055135;28;20446;-79
2023/09/18 05:19:21;;;;;;;27.00;21.73;;;;;;;18.92;100.00;95371.88;5055368;28;20446;-79
2023/09/18 05:21:48;;;;;;;28.00;20.30;;;;;;;19.16;100.00;95374.50;5055048;28;20453;-80
2023/09/18 05:24:16;;;;;;;24.97;20.93;;;;;;;19.60;100.00;95384.66;5054948;28;20452;-79
2023/09/18 05:26:43;;;;;;;27.30;20.30;;;;;;;20.02;97.74;95388.78;5054971;28;20434;-80
2023/09/18 05:29:10;;;;;;;22.40;19.63;;;;;;;20.31;95.21;95393.44;5055388;28;20913;-79
2023/09/18 05:31:37;;;;;;;25.10;18.93;;;;;;;20.60;94.06;95392.75;5054721;28;20442;-79
2023/09/18 05:34:04;;;;;;;26.13;19.43;;;;;;;20.82;92.60;95391.88;5054798;28;20493;-80
2023/09/18 05:36:31;;;;;;;24.90;19.00;;;;;;;21.09;89.95;95393.09;5054695;28;20448;-79
2023/09/18 05:38:57;;;;;;;25.40;20.37;;;;;;;21.13;89.86;95401.59;5054965;28;20426;-80
2023/09/18 05:41:28;;;;;;;22.33;19.30;;;;;;;21.34;88.96;95397.19;5054759;28;20444;-80
2023/09/18 05:43:55;;;;;;;23.67;20.10;;;;;;;21.62;88.22;95397.38;5054595;28;20445;-79
2023/09/18 05:46:22;;;;;;;24.10;19.80;;;;;;;21.83;86.72;95398.47;5054486;28;20946;-79
2023/09/18 05:48:49;;;;;;;23.80;19.73;;;;;;;22.01;85.50;95398.91;5054709;28;20455;-79
2023/09/18 05:51:16;;;;;;;26.00;21.10;;;;;;;22.02;85.10;95389.88;5054833;28;20487;-79
2023/09/18 05:53:42;;;;;;;26.10;19.90;;;;;;;22.06;85.44;95401.88;5054395;28;20478;-79
2023/09/18 05:56:10;;;;;;;26.17;18.67;;;;;;;21.95;85.74;95411.16;5054313;28;20453;-79
2023/09/18 05:58:39;;;;;;;22.27;19.67;;;;;;;21.88;86.41;95410.25;5054289;28;20518;-79
2023/09/18 06:01:06;;;;;;;25.30;18.10;;;;;;;22.08;86.41;95402.50;5054257;28;20863;-79
2023/09/18 06:03:35;;;;;;;21.47;17.67;;;;;;;22.07;85.51;95402.69;5019210;28;20437;-79
2023/09/18 06:06:02;;;;;;;22.63;17.93;;;;;;;22.03;85.47;95402.22;5054314;28;20446;-79
2023/09/18 06:08:30;;;;;;;22.57;18.20;;;;;;;22.19;85.30;95396.66;5053901;28;20929;-80
2023/09/18 06:10:57;;;;;;;22.57;18.30;;;;;;;22.28;85.17;95399.22;5053781;28;20476;-79
2023/09/18 06:13:25;;;;;;;19.27;16.30;;;;;;;22.49;84.25;95402.72;5054846;28;20446;-80
2023/09/18 06:15:55;;;;;;;19.83;15.67;;;;;;;22.52;83.44;95402.34;5057763;28;20931;-80
2023/09/18 06:18:22;;;;;;;21.00;15.40;;;;;;;22.57;83.50;95399.13;5070289;28;20446;-80
2023/09/18 06:20:49;;;;;;;16.77;14.90;;;;;;;22.89;84.02;95402.31;5060954;28;20444;-80
2023/09/18 06:23:16;;;;;;;20.40;15.20;;;;;;;23.11;80.54;95406.56;5053687;28;20854;-80
2023/09/18 06:25:43;;;;;;;15.97;14.23;;;;;;;23.21;80.50;95401.72;5053772;28;20494;-79
2023/09/18 06:28:10;;;;;;;16.10;14.30;;;;;;;23.46;79.65;95399.41;5053430;28;20455;-79
2023/09/18 06:30:36;;;;;;;16.97;14.90;;;;;;;23.74;78.60;95408.25;5053680;28;20490;-79
2023/09/18 06:33:05;;;;;;;18.73;14.70;;;;;;;23.92;76.23;95410.38;5053565;28;20445;-79
2023/09/18 06:35:31;;;;;;;20.73;15.57;;;;;;;23.89;75.64;95410.78;5034726;28;20492;-79
2023/09/18 06:37:59;;;;;;;20.93;16.37;;;;;;;23.95;75.72;95409.16;5053880;28;20441;-78
2023/09/18 06:40:26;;;;;;;17.47;15.57;;;;;;;23.86;75.15;95415.72;5053204;28;20454;-79
2023/09/18 06:42:59;;;;;;;17.90;15.23;;;;;;;24.02;75.38;95410.03;5053884;28;20508;-79
2023/09/18 06:45:26;;;;;;;17.40;15.60;;;;;;;24.09;73.81;95417.06;5053373;28;20538;-80
2023/09/18 06:47:54;;;;;;;17.70;15.17;;;;;;;24.21;73.99;95411.13;5053161;28;20461;-80
2023/09/18 06:50:22;;;;;;;18.90;15.50;;;;;;;24.38;73.21;95415.13;5053083;28;20476;-79
2023/09/18 06:52:49;;;;;;;18.10;15.40;;;;;;;24.50;72.73;95413.50;5053121;28;20438;-80
2023/09/18 06:55:16;;;;;;;16.63;14.50;;;;;;;24.79;71.53;95412.31;5053366;28;20481;-80
2023/09/18 06:57:43;;;;;;;18.63;15.50;;;;;;;24.67;70.05;95416.63;5018421;28;20453;-79
2023/09/18 07:00:11;;;;;;;16.97;15.27;;;;;;;24.63;72.00;95408.16;5052863;28;20438;-80
2023/09/18 07:02:38;;;;;;;21.13;16.00;;;;;;;24.28;72.21;95398.56;5053004;28;20524;-79
2023/09/18 07:05:05;;;;;;;21.13;15.90;;;;;;;24.09;73.07;95409.03;5052764;28;20940;-79
2023/09/18 07:07:33;;;;;;;18.73;14.47;;;;;;;24.16;72.90;95405.53;5052973;28;20521;-79
2023/09/18 07:10:00;;;;;;;17.93;16.03;;;;;;;24.05;73.12;95407.78;5052974;28;20445;-79
2023/09/18 07:12:28;;;;;;;20.33;16.00;;;;;;;23.99;73.73;95405.03;5052389;28;20476;-79
2023/09/18 07:14:54;;;;;;;21.73;14.00;;;;;;;23.86;74.55;95405.00;5052616;28;20489;-79
2023/09/18 07:17:21;;;;;;;20.33;16.20;;;;;;;23.68;75.02;95402.84;5052869;28;20448;-79
2023/09/18 07:19:48;;;;;;;18.50;16.47;;;;;;;23.76;74.12;95408.06;5052546;28;20974;-79
2023/09/18 07:22:15;;;;;;;24.90;15.53;;;;;;;23.81;74.79;95402.94;5017684;28;20441;-79
2023/09/18 07:24:45;;;;;;;22.87;16.60;;;;;;;23.75;75.03;95404.56;5017525;28;20850;-79
2023/09/18 07:27:12;;;;;;;18.37;16.23;;;;;;;23.83;74.53;95398.19;5052689;28;20471;-79
2023/09/18 07:29:40;;;;;;;18.83;15.60;;;;;;;23.90;73.48;95409.75;5017853;28;20495;-79
2023/09/18 07:32:06;;;;;;;19.20;15.90;;;;;;;24.12;73.96;95409.66;5052294;28;21024;-79
2023/09/18 07:34:34;;;;;;;17.83;13.63;;;;;;;24.34;72.94;95403.16;5033677;28;20582;-79
2023/09/18 07:37:03;;;;;;;17.73;15.03;;;;;;;24.32;71.57;95408.72;5052723;28;20986;-79
2023/09/18 07:39:30;;;;;;;19.27;16.10;;;;;;;24.63;71.35;95408.16;5052464;28;20544;-79
2023/09/18 07:41:58;;;;;;;16.97;14.90;;;;;;;24.87;70.18;95412.13;5052425;28;20440;-79
2023/09/18 07:44:25;;;;;;;20.53;16.50;;;;;;;25.02;69.72;95414.63;5052219;28;20456;-79
2023/09/18 07:46:54;;;;;;;18.43;15.83;;;;;;;24.73;69.37;95405.06;5052173;28;20438;-79
2023/09/18 07:49:21;;;;;;;17.93;15.50;;;;;;;24.68;70.60;95410.22;5052385;28;20442;-79
2023/09/18 07:51:47;;;;;;;17.73;14.63;;;;;;;24.74;68.59;95419.31;5016978;28;20442;-79
2023/09/18 07:54:16;;;;;;;20.00;15.03;;;;;;;24.78;68.72;95413.34;5052170;28;20430;-79
2023/09/18 07:56:43;;;;;;;19.57;16.10;;;;;;;24.54;70.05;95404.00;5052069;28;20469;-79
2023/09/18 07:59:11;;;;;;;17.57;15.63;;;;;;;24.73;69.65;95412.31;5052030;28;20452;-78
2023/09/18 08:01:38;;;;;;;21.13;16.00;;;;;;;24.95;70.00;95405.72;5052102;28;20485;-79
2023/09/18 08:04:05;;;;;;;16.97;14.93;;;;;;;25.16;68.86;95407.41;5051894;28;20804;-79
2023/09/18 08:06:32;;;;;;;19.97;16.53;;;;;;;25.36;67.39;95402.00;5052321;28;20826;-79
2023/09/18 08:08:59;;;;;;;19.00;15.13;;;;;;;25.52;68.65;95405.06;5051897;28;20445;-79
2023/09/18 08:11:26;;;;;;;20.60;17.20;;;;;;;25.76;66.69;95405.47;5016921;28;20477;-79
2023/09/18 08:13:52;;;;;;;17.23;14.90;;;;;;;25.76;65.31;95402.78;5051776;28;20441;-80
2023/09/18 08:16:21;;;;;;;17.40;14.80;;;;;;;25.73;64.72;95393.25;5033407;28;20473;-79
2023/09/18 08:18:47;;;;;;;17.73;15.33;;;;;;;25.78;66.28;95395.31;5051768;28;20442;-79
2023/09/18 08:21:14;;;;;;;22.90;14.63;;;;;;;25.91;65.78;95396.09;5051999;28;20491;-79
2023/09/18 08:23:41;;;;;;;22.07;15.90;;;;;;;26.00;65.81;95398.53;5052587;28;20453;-79
2023/09/18 08:26:08;;;;;;;17.93;16.07;;;;;;;26.07;64.00;95393.97;5055886;28;20452;-79
2023/09/18 08:28:38;;;;;;;16.73;14.93;;;;;;;25.87;65.03;95388.66;5055712;28;20495;-79
2023/09/18 08:31:05;;;;;;;18.53;16.53;;;;;;;26.10;65.17;95393.53;5056005;28;20942;-79
2023/09/18 08:33:34;;;;;;;17.20;13.90;;;;;;;26.20;63.49;95385.84;5055878;28;20456;-79
2023/09/18 08:36:01;;;;;;;16.20;14.53;;;;;;;26.15;63.01;95380.28;5055612;28;20485;-78
2023/09/18 08:38:27;;;;;;;15.83;14.27;;;;;;;26.20;62.69;95383.97;5020744;28;20438;-79
2023/09/18 08:40:55;;;;;;;17.40;14.07;;;;;;;26.29;62.98;95381.84;5055484;28;20441;-79
2023/09/18 08:43:23;;;;;;;20.73;15.00;;;;;;;26.55;62.30;95379.03;5055575;28;20924;-79
2023/09/18 08:45:53;;;;;;;15.50;13.90;;;;;;;26.76;61.50;95371.66;5055618;28;20932;-80
2023/09/18 08:48:20;;;;;;;15.50;13.13;;;;;;;26.73;59.59;95351.38;5055601;28;20484;-79
2023/09/18 08:50:49;;;;;;;15.67;14.07;;;;;;;26.75;60.98;95361.91;5055533;28;20445;-79
2023/09/18 08:53:16;;;;;;;15.33;13.87;;;;;;;26.83;61.58;95361.63;5055445;28;20442;-79
2023/09/18 08:55:43;;;;;;;19.53;17.23;;;;;;;26.81;61.19;95348.38;5055305;28;20490;-79
2023/09/18 08:58:10;;;;;;;20.33;16.43;;;;;;;26.67;60.41;95356.81;5055919;28;20442;-79
2023/09/18 09:00:38;;;;;;;14.03;12.63;;;;;;;26.69;59.38;95362.78;5055329;28;20441;-79
2023/09/18 09:03:05;;;;;;;46.33;36.40;;;;;;;26.79;59.76;95355.03;5020016;28;20781;-79
2023/09/18 09:05:33;;;;;;;38.27;30.40;;;;;;;26.89;58.94;95354.53;5055347;28;20445;-79
2023/09/18 09:08:01;;;;;;;16.63;13.53;;;;;;;26.97;58.60;95352.41;5020345;28;20444;-79
2023/09/18 09:10:29;;;;;;;13.03;11.73;;;;;;;27.04;58.13;95353.22;5020367;28;20512;-79
2023/09/18 09:12:57;;;;;;;16.67;12.77;;;;;;;27.05;58.18;95354.84;5055189;28;20888;-79
2023/09/18 09:15:26;;;;;;;14.20;12.53;;;;;;;27.14;57.38;95352.69;5055192;28;20485;-79
2023/09/18 09:18:02;;;;;;;24.57;18.93;;;;;;;27.22;58.30;95348.91;5020238;28;20460;-79
2023/09/18 09:20:29;;;;;;;17.13;14.93;;;;;;;27.33;57.85;95353.56;5019735;28;20444;-79
2023/09/18 09:23:02;;;;;;;13.57;11.60;;;;;;;27.46;56.72;95348.84;5054908;28;20450;-79
2023/09/18 09:25:32;;;;;;;14.53;12.80;;;;;;;27.51;57.25;95339.28;5055286;28;20847;-79
2023/09/18 09:28:00;;;;;;;20.30;12.73;;;;;;;27.55;57.76;95338.63;5054834;28;20446;-79
2023/09/18 09:30:28;;;;;;;16.30;13.10;;;;;;;27.55;56.63;95341.31;5061679;28;20438;-80
2023/09/18 09:32:56;;;;;;;16.80;12.70;;;;;;;27.58;57.75;95327.38;5067232;28;20448;-79
2023/09/18 09:35:27;;;;;;;16.60;12.30;;;;;;;27.62;56.89;95333.16;5054002;28;21008;-80
2023/09/18 09:37:55;;;;;;;18.87;12.40;;;;;;;27.59;56.30;95334.41;5054820;28;20438;-79
2023/09/18 09:40:24;;;;;;;14.80;13.37;;;;;;;27.61;56.50;95326.09;5054630;28;21003;-79
2023/09/18 09:43:00;;;;;;;13.10;11.70;;;;;;;27.62;56.17;95333.16;5054653;28;20442;-80
2023/09/18 09:45:28;;;;;;;14.20;10.40;;;;;;;27.04;56.16;95325.44;5054403;28;20527;-80
2023/09/18 09:47:56;;;;;;;10.90;9.50;;;;;;;26.63;56.14;95323.28;5035584;28;20473;-80
2023/09/18 09:50:25;;;;;;;12.20;11.00;;;;;;;26.29;57.46;95319.94;5054621;28;20449;-79
2023/09/18 09:52:54;;;;;;;13.33;11.70;;;;;;;25.80;59.61;95316.09;5054651;28;20457;-79
2023/09/18 09:55:24;;;;;;;14.63;12.00;;;;;;;25.47;61.53;95315.38;5054476;28;20484;-79
2023/09/18 09:57:54;;;;;;;13.13;11.70;;;;;;;25.54;60.56;95316.16;5054523;28;20529;-79
2023/09/18 10:00:26;;;;;;;13.13;11.80;;;;;;;25.47;61.15;95312.69;5054080;28;20442;-79
2023/09/18 10:02:58;;;;;;;13.57;12.13;;;;;;;25.43;62.63;95306.88;5054379;28;20457;-79
2023/09/18 10:05:28;;;;;;;15.80;12.77;;;;;;;25.38;62.95;95308.56;5054193;28;20441;-79
2023/09/18 10:07:59;;;;;;;13.53;11.80;;;;;;;25.31;62.71;95295.97;5054016;28;20480;-79
2023/09/18 10:10:32;;;;;;;12.63;11.00;;;;;;;25.38;62.30;95304.00;5053943;28;20847;-80
2023/09/18 10:13:03;;;;;;;12.30;11.00;;;;;;;25.36;61.92;95299.88;5054441;28;20527;-79
2023/09/18 10:15:33;;;;;;;13.47;11.17;;;;;;;25.33;61.43;95306.50;5019613;28;20840;-79
2023/09/18 10:18:03;;;;;;;16.03;11.30;;;;;;;25.30;61.92;95306.94;5053790;28;20449;-79
2023/09/18 10:20:31;;;;;;;11.57;10.37;;;;;;;25.26;60.36;95301.16;5054131;28;20448;-79
2023/09/18 10:23:02;;;;;;;12.37;10.53;;;;;;;25.19;60.84;95297.69;5054408;28;20442;-79
2023/09/18 10:25:32;;;;;;;13.13;10.83;;;;;;;25.32;60.92;95294.94;5051036;28;20972;-80
2023/09/18 10:28:02;;;;;;;11.43;10.33;;;;;;;25.35;60.85;95292.88;5051220;28;20445;-79
2023/09/18 10:30:30;;;;;;;12.63;9.50;;;;;;;25.32;60.64;95294.13;5051097;28;20531;-79
2023/09/18 10:32:59;;;;;;;14.33;8.43;;;;;;;25.30;59.78;95285.44;5051521;28;20948;-80
2023/09/18 10:35:26;;;;;;;12.00;10.73;;;;;;;25.25;59.97;95283.41;5051058;28;20489;-80
2023/09/18 10:37:55;;;;;;;9.77;8.87;;;;;;;25.24;61.21;95278.25;5051435;28;20438;-78
2023/09/18 10:40:22;;;;;;;11.50;8.83;;;;;;;25.03;58.33;95273.94;5051298;28;20437;-80
2023/09/18 10:42:53;;;;;;;9.93;8.97;;;;;;;25.33;60.37;95269.72;5051591;28;20469;-79
2023/09/18 10:45:20;;;;;;;11.17;10.00;;;;;;;25.51;58.95;95270.91;5053513;28;20460;-80
2023/09/18 10:47:48;;;;;;;9.03;7.77;;;;;;;25.62;58.24;95254.09;5052483;28;20448;-79
2023/09/18 10:50:23;;;;;;;10.07;8.70;;;;;;;25.69;56.98;95257.59;5034532;28;20437;-80
2023/09/18 10:52:50;;;;;;;8.70;7.80;;;;;;;25.40;58.97;95252.75;5053893;28;20442;-79
2023/09/18 10:55:17;;;;;;;8.17;7.17;;;;;;;25.34;59.97;95254.44;5053163;28;20485;-80
2023/09/18 10:57:53;;;;;;;8.87;7.80;;;;;;;25.35;58.20;95245.34;5053394;28;20445;-79
2023/09/18 11:00:22;;;;;;;8.83;8.00;;;;;;;25.46;58.33;95249.22;5052982;28;20480;-80
2023/09/18 11:02:51;;;;;;;8.10;7.30;;;;;;;25.25;58.93;95251.16;5018788;28;20457;-79
2023/09/18 11:05:30;;;;;;;10.40;7.20;;;;;;;25.23;59.96;95249.72;5053287;28;20492;-78
2023/09/18 11:08:31;;;;;;;8.43;7.67;;;;;;;24.82;60.62;95241.94;5054820;28;20937;-80
2023/09/18 11:11:09;;;;;;;8.77;7.87;;;;;;;24.69;60.98;95240.94;5052648;28;20846;-80
2023/09/18 11:13:40;;;;;;;10.90;8.07;;;;;;;24.80;61.54;95238.63;5052883;28;20453;-80
2023/09/18 11:16:19;;;;;;;8.83;7.83;;;;;;;24.78;60.87;95238.03;5052934;28;20500;-80
2023/09/18 11:18:49;;;;;;;8.07;7.37;;;;;;;24.77;60.09;95237.19;5053105;28;20449;-79